sensor_id;sensor_type;location;lat;lon;timestamp;P1;durP1;ratioP1;P2;durP2;ratioP2
24650;SDS011;12783;48.824;8.662;2022-08-30T00:02:00;4.53;;;2.42;;
24650;SDS011;12783;48.824;8.662;2022-08-30T00:04:27;4.22;;;2.72;;
24650;SDS011;12783;48.824;8.662;2022-08-30T00:06:53;4.22;;;2.70;;
24650;SDS011;12783;48.824;8.662;2022-08-30T00:09:20;4.13;;;2.55;;
24650;SDS011;12783;48.824;8.662;2022-08-30T00:11:47;7.57;;;3.03;;
24650;SDS011;12783;48.824;8.662;2022-08-30T00:14:17;8.60;;;3.50;;
24650;SDS011;12783;48.824;8.662;2022-08-30T00:16:45;5.03;;;2.92;;
24650;SDS011;12783;48.824;8.662;2022-08-30T00:19:12;3.88;;;2.50;;
24650;SDS011;12783;48.824;8.662;2022-08-30T00:21:39;7.00;;;2.90;;
24650;SDS011;12783;48.824;8.662;2022-08-30T00:24:05;4.10;;;2.72;;
24650;SDS011;12783;48.824;8.662;2022-08-30T00:26:32;6.82;;;2.80;;
24650;SDS011;12783;48.824;8.662;2022-08-30T00:28:59;4.82;;;2.83;;
24650;SDS011;12783;48.824;8.662;2022-08-30T00:31:26;6.20;;;2.97;;
24650;SDS011;12783;48.824;8.662;2022-08-30T00:33:53;4.32;;;2.78;;
24650;SDS011;12783;48.824;8.662;2022-08-30T00:36:19;8.00;;;3.05;;
24650;SDS011;12783;48.824;8.662;2022-08-30T00:38:46;4.10;;;2.97;;
24650;SDS011;12783;48.824;8.662;2022-08-30T00:41:13;3.88;;;2.78;;
24650;SDS011;12783;48.824;8.662;2022-08-30T00:43:40;6.47;;;3.20;;
24650;SDS011;12783;48.824;8.662;2022-08-30T00:46:07;3.78;;;2.90;;
24650;SDS011;12783;48.824;8.662;2022-08-30T00:48:39;5.80;;;3.03;;
24650;SDS011;12783;48.824;8.662;2022-08-30T00:51:08;5.22;;;2.85;;
24650;SDS011;12783;48.824;8.662;2022-08-30T00:53:37;4.28;;;2.67;;
24650;SDS011;12783;48.824;8.662;2022-08-30T00:56:06;6.18;;;3.08;;
24650;SDS011;12783;48.824;8.662;2022-08-30T00:58:34;5.30;;;2.72;;
24650;SDS011;12783;48.824;8.662;2022-08-30T01:01:04;6.88;;;3.20;;
24650;SDS011;12783;48.824;8.662;2022-08-30T01:03:32;10.88;;;3.03;;
24650;SDS011;12783;48.824;8.662;2022-08-30T01:05:59;3.88;;;2.70;;
24650;SDS011;12783;48.824;8.662;2022-08-30T01:08:26;7.90;;;2.80;;
24650;SDS011;12783;48.824;8.662;2022-08-30T01:10:54;5.57;;;2.80;;
24650;SDS011;12783;48.824;8.662;2022-08-30T01:13:22;6.70;;;2.95;;
24650;SDS011;12783;48.824;8.662;2022-08-30T01:15:49;5.97;;;3.20;;
24650;SDS011;12783;48.824;8.662;2022-08-30T01:18:18;7.13;;;3.30;;
24650;SDS011;12783;48.824;8.662;2022-08-30T01:23:39;5.35;;;2.92;;
24650;SDS011;12783;48.824;8.662;2022-08-30T01:26:09;6.80;;;3.05;;
24650;SDS011;12783;48.824;8.662;2022-08-30T01:28:37;5.38;;;3.00;;
24650;SDS011;12783;48.824;8.662;2022-08-30T01:31:04;6.18;;;3.03;;
24650;SDS011;12783;48.824;8.662;2022-08-30T01:33:31;5.00;;;3.05;;
24650;SDS011;12783;48.824;8.662;2022-08-30T01:35:59;5.07;;;3.03;;
24650;SDS011;12783;48.824;8.662;2022-08-30T01:38:29;7.20;;;3.08;;
24650;SDS011;12783;48.824;8.662;2022-08-30T01:41:11;4.20;;;3.03;;
24650;SDS011;12783;48.824;8.662;2022-08-30T01:43:41;5.28;;;2.97;;
24650;SDS011;12783;48.824;8.662;2022-08-30T01:46:08;8.18;;;3.05;;
24650;SDS011;12783;48.824;8.662;2022-08-30T01:48:37;8.57;;;3.28;;
24650;SDS011;12783;48.824;8.662;2022-08-30T01:51:05;7.63;;;3.20;;
24650;SDS011;12783;48.824;8.662;2022-08-30T01:53:32;3.75;;;2.90;;
24650;SDS011;12783;48.824;8.662;2022-08-30T01:55:58;6.03;;;3.17;;
24650;SDS011;12783;48.824;8.662;2022-08-30T01:58:25;5.00;;;3.20;;
24650;SDS011;12783;48.824;8.662;2022-08-30T02:00:53;6.65;;;2.97;;
24650;SDS011;12783;48.824;8.662;2022-08-30T02:03:20;6.13;;;2.80;;
24650;SDS011;12783;48.824;8.662;2022-08-30T02:05:47;6.45;;;3.50;;
24650;SDS011;12783;48.824;8.662;2022-08-30T02:08:14;6.63;;;3.22;;
24650;SDS011;12783;48.824;8.662;2022-08-30T02:10:41;5.82;;;3.17;;
24650;SDS011;12783;48.824;8.662;2022-08-30T02:13:08;4.82;;;3.00;;
24650;SDS011;12783;48.824;8.662;2022-08-30T02:15:34;8.35;;;3.30;;
24650;SDS011;12783;48.824;8.662;2022-08-30T02:18:07;5.82;;;3.45;;
24650;SDS011;12783;48.824;8.662;2022-08-30T02:20:36;6.93;;;3.60;;
24650;SDS011;12783;48.824;8.662;2022-08-30T02:23:04;6.63;;;3.50;;
24650;SDS011;12783;48.824;8.662;2022-08-30T02:25:31;3.53;;;2.80;;
24650;SDS011;12783;48.824;8.662;2022-08-30T02:27:58;7.90;;;3.28;;
24650;SDS011;12783;48.824;8.662;2022-08-30T02:30:25;5.95;;;3.45;;
24650;SDS011;12783;48.824;8.662;2022-08-30T02:32:52;5.72;;;3.50;;
24650;SDS011;12783;48.824;8.662;2022-08-30T02:35:18;6.03;;;3.35;;
24650;SDS011;12783;48.824;8.662;2022-08-30T02:37:45;4.97;;;3.63;;
24650;SDS011;12783;48.824;8.662;2022-08-30T02:40:12;5.47;;;3.30;;
24650;SDS011;12783;48.824;8.662;2022-08-30T02:42:39;6.15;;;3.38;;
24650;SDS011;12783;48.824;8.662;2022-08-30T02:45:07;7.85;;;3.78;;
24650;SDS011;12783;48.824;8.662;2022-08-30T02:47:34;6.05;;;3.50;;
24650;SDS011;12783;48.824;8.662;2022-08-30T02:50:02;6.50;;;3.55;;
24650;SDS011;12783;48.824;8.662;2022-08-30T02:52:30;6.85;;;3.45;;
24650;SDS011;12783;48.824;8.662;2022-08-30T02:54:56;7.30;;;3.80;;
24650;SDS011;12783;48.824;8.662;2022-08-30T02:57:23;7.05;;;3.75;;
24650;SDS011;12783;48.824;8.662;2022-08-30T02:59:50;5.72;;;3.92;;
24650;SDS011;12783;48.824;8.662;2022-08-30T03:02:18;8.00;;;3.80;;
24650;SDS011;12783;48.824;8.662;2022-08-30T03:04:45;7.80;;;4.00;;
24650;SDS011;12783;48.824;8.662;2022-08-30T03:07:12;8.75;;;4.05;;
24650;SDS011;12783;48.824;8.662;2022-08-30T03:09:39;7.88;;;4.05;;
24650;SDS011;12783;48.824;8.662;2022-08-30T03:12:06;8.68;;;4.15;;
24650;SDS011;12783;48.824;8.662;2022-08-30T03:14:37;9.90;;;3.63;;
24650;SDS011;12783;48.824;8.662;2022-08-30T03:17:05;6.28;;;3.90;;
24650;SDS011;12783;48.824;8.662;2022-08-30T03:19:41;6.07;;;3.92;;
24650;SDS011;12783;48.824;8.662;2022-08-30T03:22:08;7.15;;;4.30;;
24650;SDS011;12783;48.824;8.662;2022-08-30T03:24:35;6.72;;;4.30;;
24650;SDS011;12783;48.824;8.662;2022-08-30T03:27:02;6.05;;;4.07;;
24650;SDS011;12783;48.824;8.662;2022-08-30T03:29:29;8.75;;;4.00;;
24650;SDS011;12783;48.824;8.662;2022-08-30T03:31:56;6.07;;;4.10;;
24650;SDS011;12783;48.824;8.662;2022-08-30T03:34:23;12.65;;;3.95;;
24650;SDS011;12783;48.824;8.662;2022-08-30T03:36:51;6.35;;;3.95;;
24650;SDS011;12783;48.824;8.662;2022-08-30T03:39:20;7.65;;;3.92;;
24650;SDS011;12783;48.824;8.662;2022-08-30T03:41:48;6.10;;;3.97;;
24650;SDS011;12783;48.824;8.662;2022-08-30T03:44:17;6.78;;;4.47;;
24650;SDS011;12783;48.824;8.662;2022-08-30T03:46:43;5.30;;;3.83;;
24650;SDS011;12783;48.824;8.662;2022-08-30T03:49:10;5.45;;;3.63;;
24650;SDS011;12783;48.824;8.662;2022-08-30T03:51:37;8.63;;;3.95;;
24650;SDS011;12783;48.824;8.662;2022-08-30T03:54:04;7.20;;;4.20;;
24650;SDS011;12783;48.824;8.662;2022-08-30T03:56:31;7.50;;;4.40;;
24650;SDS011;12783;48.824;8.662;2022-08-30T03:58:57;5.15;;;3.80;;
24650;SDS011;12783;48.824;8.662;2022-08-30T04:01:24;8.52;;;4.18;;
24650;SDS011;12783;48.824;8.662;2022-08-30T04:03:51;9.35;;;3.95;;
24650;SDS011;12783;48.824;8.662;2022-08-30T04:06:18;7.82;;;3.63;;
24650;SDS011;12783;48.824;8.662;2022-08-30T04:08:44;8.30;;;4.47;;
24650;SDS011;12783;48.824;8.662;2022-08-30T04:11:11;6.82;;;4.28;;
24650;SDS011;12783;48.824;8.662;2022-08-30T04:13:40;10.52;;;4.20;;
24650;SDS011;12783;48.824;8.662;2022-08-30T04:16:07;10.77;;;4.00;;
24650;SDS011;12783;48.824;8.662;2022-08-30T04:18:34;6.07;;;4.20;;
24650;SDS011;12783;48.824;8.662;2022-08-30T04:21:01;6.32;;;4.05;;
24650;SDS011;12783;48.824;8.662;2022-08-30T04:23:29;7.72;;;3.80;;
24650;SDS011;12783;48.824;8.662;2022-08-30T04:25:56;5.88;;;3.80;;
24650;SDS011;12783;48.824;8.662;2022-08-30T04:28:22;6.63;;;4.20;;
24650;SDS011;12783;48.824;8.662;2022-08-30T04:30:49;6.95;;;4.45;;
24650;SDS011;12783;48.824;8.662;2022-08-30T04:33:16;7.45;;;4.07;;
24650;SDS011;12783;48.824;8.662;2022-08-30T04:35:45;7.18;;;4.25;;
24650;SDS011;12783;48.824;8.662;2022-08-30T04:38:13;6.55;;;4.05;;
24650;SDS011;12783;48.824;8.662;2022-08-30T04:40:41;7.72;;;4.55;;
24650;SDS011;12783;48.824;8.662;2022-08-30T04:43:09;6.65;;;4.32;;
24650;SDS011;12783;48.824;8.662;2022-08-30T04:45:38;6.93;;;4.47;;
24650;SDS011;12783;48.824;8.662;2022-08-30T04:48:06;7.20;;;4.55;;
24650;SDS011;12783;48.824;8.662;2022-08-30T04:50:33;6.15;;;4.22;;
24650;SDS011;12783;48.824;8.662;2022-08-30T04:53:00;8.05;;;4.30;;
24650;SDS011;12783;48.824;8.662;2022-08-30T04:55:26;5.85;;;4.25;;
24650;SDS011;12783;48.824;8.662;2022-08-30T04:57:53;7.82;;;4.68;;
24650;SDS011;12783;48.824;8.662;2022-08-30T05:00:21;9.07;;;4.68;;
24650;SDS011;12783;48.824;8.662;2022-08-30T05:02:48;7.97;;;4.32;;
24650;SDS011;12783;48.824;8.662;2022-08-30T05:05:15;6.78;;;4.45;;
24650;SDS011;12783;48.824;8.662;2022-08-30T05:08:01;9.63;;;4.50;;
24650;SDS011;12783;48.824;8.662;2022-08-30T05:10:28;6.80;;;4.38;;
24650;SDS011;12783;48.824;8.662;2022-08-30T05:12:54;9.63;;;4.53;;
24650;SDS011;12783;48.824;8.662;2022-08-30T05:15:21;10.48;;;4.35;;
24650;SDS011;12783;48.824;8.662;2022-08-30T05:17:48;8.15;;;4.25;;
24650;SDS011;12783;48.824;8.662;2022-08-30T05:20:15;9.15;;;4.05;;
24650;SDS011;12783;48.824;8.662;2022-08-30T05:22:42;5.78;;;4.10;;
24650;SDS011;12783;48.824;8.662;2022-08-30T05:25:23;7.18;;;4.63;;
24650;SDS011;12783;48.824;8.662;2022-08-30T05:27:52;8.98;;;4.60;;
24650;SDS011;12783;48.824;8.662;2022-08-30T05:30:19;9.07;;;4.30;;
24650;SDS011;12783;48.824;8.662;2022-08-30T05:32:46;6.22;;;4.20;;
24650;SDS011;12783;48.824;8.662;2022-08-30T05:35:13;5.75;;;4.00;;
24650;SDS011;12783;48.824;8.662;2022-08-30T05:37:41;6.25;;;4.32;;
24650;SDS011;12783;48.824;8.662;2022-08-30T05:40:08;6.22;;;4.18;;
24650;SDS011;12783;48.824;8.662;2022-08-30T05:42:37;5.75;;;3.85;;
24650;SDS011;12783;48.824;8.662;2022-08-30T05:45:06;6.38;;;4.22;;
24650;SDS011;12783;48.824;8.662;2022-08-30T05:47:34;7.53;;;4.45;;
24650;SDS011;12783;48.824;8.662;2022-08-30T05:50:02;9.15;;;4.50;;
24650;SDS011;12783;48.824;8.662;2022-08-30T05:52:29;5.93;;;4.40;;
24650;SDS011;12783;48.824;8.662;2022-08-30T05:54:56;8.90;;;4.57;;
24650;SDS011;12783;48.824;8.662;2022-08-30T05:57:33;5.18;;;4.40;;
24650;SDS011;12783;48.824;8.662;2022-08-30T06:00:03;8.90;;;4.22;;
24650;SDS011;12783;48.824;8.662;2022-08-30T06:02:31;6.85;;;4.45;;
24650;SDS011;12783;48.824;8.662;2022-08-30T06:04:58;8.10;;;4.43;;
24650;SDS011;12783;48.824;8.662;2022-08-30T06:07:27;7.15;;;4.50;;
24650;SDS011;12783;48.824;8.662;2022-08-30T06:09:54;5.13;;;4.22;;
24650;SDS011;12783;48.824;8.662;2022-08-30T06:12:21;6.25;;;4.20;;
24650;SDS011;12783;48.824;8.662;2022-08-30T06:14:47;6.45;;;4.22;;
24650;SDS011;12783;48.824;8.662;2022-08-30T06:17:18;8.73;;;4.93;;
24650;SDS011;12783;48.824;8.662;2022-08-30T06:19:45;7.35;;;4.35;;
24650;SDS011;12783;48.824;8.662;2022-08-30T06:22:12;5.15;;;3.85;;
24650;SDS011;12783;48.824;8.662;2022-08-30T06:24:39;6.57;;;4.40;;
24650;SDS011;12783;48.824;8.662;2022-08-30T06:27:23;5.47;;;3.80;;
24650;SDS011;12783;48.824;8.662;2022-08-30T06:29:52;5.82;;;4.47;;
24650;SDS011;12783;48.824;8.662;2022-08-30T06:32:19;6.15;;;4.45;;
24650;SDS011;12783;48.824;8.662;2022-08-30T06:34:46;5.32;;;3.63;;
24650;SDS011;12783;48.824;8.662;2022-08-30T06:37:13;6.32;;;4.13;;
24650;SDS011;12783;48.824;8.662;2022-08-30T06:39:55;5.82;;;3.97;;
24650;SDS011;12783;48.824;8.662;2022-08-30T06:42:22;8.45;;;4.22;;
24650;SDS011;12783;48.824;8.662;2022-08-30T06:44:55;5.45;;;4.35;;
24650;SDS011;12783;48.824;8.662;2022-08-30T06:47:23;7.10;;;4.40;;
24650;SDS011;12783;48.824;8.662;2022-08-30T06:49:49;5.47;;;4.00;;
24650;SDS011;12783;48.824;8.662;2022-08-30T06:52:16;5.43;;;4.13;;
24650;SDS011;12783;48.824;8.662;2022-08-30T06:54:44;8.48;;;4.75;;
24650;SDS011;12783;48.824;8.662;2022-08-30T06:57:11;9.07;;;4.93;;
24650;SDS011;12783;48.824;8.662;2022-08-30T06:59:38;7.78;;;4.38;;
24650;SDS011;12783;48.824;8.662;2022-08-30T07:02:05;6.45;;;4.60;;
24650;SDS011;12783;48.824;8.662;2022-08-30T07:04:33;8.93;;;4.50;;
24650;SDS011;12783;48.824;8.662;2022-08-30T07:07:00;6.95;;;4.32;;
24650;SDS011;12783;48.824;8.662;2022-08-30T07:09:27;4.85;;;3.90;;
24650;SDS011;12783;48.824;8.662;2022-08-30T07:11:55;6.15;;;4.22;;
24650;SDS011;12783;48.824;8.662;2022-08-30T07:14:22;7.45;;;4.68;;
24650;SDS011;12783;48.824;8.662;2022-08-30T07:16:48;4.88;;;4.00;;
24650;SDS011;12783;48.824;8.662;2022-08-30T07:19:17;4.90;;;4.20;;
24650;SDS011;12783;48.824;8.662;2022-08-30T07:21:46;5.55;;;3.97;;
24650;SDS011;12783;48.824;8.662;2022-08-30T07:24:14;8.27;;;4.10;;
24650;SDS011;12783;48.824;8.662;2022-08-30T07:26:43;5.75;;;4.20;;
24650;SDS011;12783;48.824;8.662;2022-08-30T07:29:15;6.93;;;3.90;;
24650;SDS011;12783;48.824;8.662;2022-08-30T07:31:42;7.30;;;4.18;;
24650;SDS011;12783;48.824;8.662;2022-08-30T07:34:09;5.82;;;4.40;;
24650;SDS011;12783;48.824;8.662;2022-08-30T07:36:36;6.63;;;4.28;;
24650;SDS011;12783;48.824;8.662;2022-08-30T07:39:04;7.30;;;4.32;;
24650;SDS011;12783;48.824;8.662;2022-08-30T07:41:32;5.13;;;3.75;;
24650;SDS011;12783;48.824;8.662;2022-08-30T07:44:01;5.15;;;3.72;;
24650;SDS011;12783;48.824;8.662;2022-08-30T07:46:28;6.75;;;4.22;;
24650;SDS011;12783;48.824;8.662;2022-08-30T07:48:57;6.45;;;4.20;;
24650;SDS011;12783;48.824;8.662;2022-08-30T07:51:27;6.25;;;4.07;;
24650;SDS011;12783;48.824;8.662;2022-08-30T07:53:54;8.02;;;4.47;;
24650;SDS011;12783;48.824;8.662;2022-08-30T07:56:22;7.88;;;4.30;;
24650;SDS011;12783;48.824;8.662;2022-08-30T07:58:49;4.80;;;3.85;;
24650;SDS011;12783;48.824;8.662;2022-08-30T08:01:17;6.07;;;4.35;;
24650;SDS011;12783;48.824;8.662;2022-08-30T08:03:44;6.43;;;4.20;;
24650;SDS011;12783;48.824;8.662;2022-08-30T08:06:12;8.50;;;4.13;;
24650;SDS011;12783;48.824;8.662;2022-08-30T08:08:40;6.05;;;4.18;;
24650;SDS011;12783;48.824;8.662;2022-08-30T08:11:13;6.70;;;4.15;;
24650;SDS011;12783;48.824;8.662;2022-08-30T08:13:42;6.70;;;4.05;;
24650;SDS011;12783;48.824;8.662;2022-08-30T08:16:19;5.15;;;3.85;;
24650;SDS011;12783;48.824;8.662;2022-08-30T08:18:47;5.50;;;3.95;;
24650;SDS011;12783;48.824;8.662;2022-08-30T08:21:14;4.88;;;4.18;;
24650;SDS011;12783;48.824;8.662;2022-08-30T08:23:41;4.65;;;4.00;;
24650;SDS011;12783;48.824;8.662;2022-08-30T08:26:07;5.03;;;3.90;;
24650;SDS011;12783;48.824;8.662;2022-08-30T08:28:34;9.60;;;4.47;;
24650;SDS011;12783;48.824;8.662;2022-08-30T08:31:01;6.45;;;4.57;;
24650;SDS011;12783;48.824;8.662;2022-08-30T08:33:28;7.85;;;4.15;;
24650;SDS011;12783;48.824;8.662;2022-08-30T08:35:55;9.15;;;4.70;;
24650;SDS011;12783;48.824;8.662;2022-08-30T08:38:22;6.35;;;4.45;;
24650;SDS011;12783;48.824;8.662;2022-08-30T08:40:54;6.97;;;4.30;;
24650;SDS011;12783;48.824;8.662;2022-08-30T08:43:28;5.07;;;3.75;;
24650;SDS011;12783;48.824;8.662;2022-08-30T08:46:03;6.28;;;3.70;;
24650;SDS011;12783;48.824;8.662;2022-08-30T08:51:26;5.80;;;4.13;;
24650;SDS011;12783;48.824;8.662;2022-08-30T08:54:18;8.13;;;4.50;;
24650;SDS011;12783;48.824;8.662;2022-08-30T08:56:46;12.82;;;4.68;;
24650;SDS011;12783;48.824;8.662;2022-08-30T08:59:13;5.18;;;3.50;;
24650;SDS011;12783;48.824;8.662;2022-08-30T09:01:41;8.52;;;6.13;;
24650;SDS011;12783;48.824;8.662;2022-08-30T09:04:09;8.02;;;3.67;;
24650;SDS011;12783;48.824;8.662;2022-08-30T09:06:41;5.28;;;3.40;;
24650;SDS011;12783;48.824;8.662;2022-08-30T09:09:28;7.18;;;3.95;;
24650;SDS011;12783;48.824;8.662;2022-08-30T09:11:59;8.02;;;4.00;;
24650;SDS011;12783;48.824;8.662;2022-08-30T09:14:30;4.53;;;3.50;;
24650;SDS011;12783;48.824;8.662;2022-08-30T09:17:04;6.13;;;4.63;;
24650;SDS011;12783;48.824;8.662;2022-08-30T09:19:38;6.33;;;4.13;;
24650;SDS011;12783;48.824;8.662;2022-08-30T09:22:21;8.27;;;3.90;;
24650;SDS011;12783;48.824;8.662;2022-08-30T09:25:04;6.00;;;3.88;;
24650;SDS011;12783;48.824;8.662;2022-08-30T09:27:53;6.80;;;3.47;;
24650;SDS011;12783;48.824;8.662;2022-08-30T09:30:25;4.45;;;3.33;;
24650;SDS011;12783;48.824;8.662;2022-08-30T09:33:01;4.55;;;3.45;;
24650;SDS011;12783;48.824;8.662;2022-08-30T09:35:40;4.65;;;3.50;;
24650;SDS011;12783;48.824;8.662;2022-08-30T09:38:10;4.15;;;3.53;;
24650;SDS011;12783;48.824;8.662;2022-08-30T09:40:44;6.07;;;3.88;;
24650;SDS011;12783;48.824;8.662;2022-08-30T09:45:47;4.75;;;3.60;;
24650;SDS011;12783;48.824;8.662;2022-08-30T09:48:22;7.43;;;3.78;;
24650;SDS011;12783;48.824;8.662;2022-08-30T09:56:08;6.18;;;3.50;;
24650;SDS011;12783;48.824;8.662;2022-08-30T09:58:57;5.25;;;3.50;;
24650;SDS011;12783;48.824;8.662;2022-08-30T10:01:45;6.38;;;3.45;;
24650;SDS011;12783;48.824;8.662;2022-08-30T10:04:28;6.32;;;3.15;;
24650;SDS011;12783;48.824;8.662;2022-08-30T10:09:41;6.95;;;3.75;;
24650;SDS011;12783;48.824;8.662;2022-08-30T10:12:22;4.63;;;3.33;;
24650;SDS011;12783;48.824;8.662;2022-08-30T10:15:13;8.75;;;3.80;;
24650;SDS011;12783;48.824;8.662;2022-08-30T10:17:55;4.70;;;3.25;;
24650;SDS011;12783;48.824;8.662;2022-08-30T10:20:35;6.47;;;3.17;;
24650;SDS011;12783;48.824;8.662;2022-08-30T10:23:15;6.32;;;3.20;;
24650;SDS011;12783;48.824;8.662;2022-08-30T10:25:52;9.60;;;3.80;;
24650;SDS011;12783;48.824;8.662;2022-08-30T10:28:53;11.10;;;4.05;;
24650;SDS011;12783;48.824;8.662;2022-08-30T10:31:26;9.40;;;4.10;;
24650;SDS011;12783;48.824;8.662;2022-08-30T10:34:00;6.68;;;3.83;;
24650;SDS011;12783;48.824;8.662;2022-08-30T10:36:32;6.28;;;3.60;;
24650;SDS011;12783;48.824;8.662;2022-08-30T10:39:02;4.95;;;3.35;;
24650;SDS011;12783;48.824;8.662;2022-08-30T10:46:28;3.88;;;3.40;;
24650;SDS011;12783;48.824;8.662;2022-08-30T10:48:56;7.38;;;4.10;;
24650;SDS011;12783;48.824;8.662;2022-08-30T10:51:31;5.63;;;3.70;;
24650;SDS011;12783;48.824;8.662;2022-08-30T10:56:43;5.55;;;4.03;;
24650;SDS011;12783;48.824;8.662;2022-08-30T10:59:15;7.75;;;3.60;;
24650;SDS011;12783;48.824;8.662;2022-08-30T11:07:23;13.25;;;3.78;;
24650;SDS011;12783;48.824;8.662;2022-08-30T11:10:06;6.97;;;3.83;;
24650;SDS011;12783;48.824;8.662;2022-08-30T11:15:55;5.80;;;3.70;;
24650;SDS011;12783;48.824;8.662;2022-08-30T11:18:40;5.20;;;3.92;;
24650;SDS011;12783;48.824;8.662;2022-08-30T11:24:07;6.82;;;3.40;;
24650;SDS011;12783;48.824;8.662;2022-08-30T11:31:59;6.10;;;3.05;;
24650;SDS011;12783;48.824;8.662;2022-08-30T11:37:31;3.97;;;3.58;;
24650;SDS011;12783;48.824;8.662;2022-08-30T11:40:03;8.43;;;3.50;;
24650;SDS011;12783;48.824;8.662;2022-08-30T11:42:46;8.20;;;3.72;;
24650;SDS011;12783;48.824;8.662;2022-08-30T11:50:30;7.20;;;3.50;;
24650;SDS011;12783;48.824;8.662;2022-08-30T12:01:29;6.25;;;3.30;;
24650;SDS011;12783;48.824;8.662;2022-08-30T12:06:46;10.02;;;3.55;;
24650;SDS011;12783;48.824;8.662;2022-08-30T12:14:54;8.00;;;3.90;;
24650;SDS011;12783;48.824;8.662;2022-08-30T12:17:27;8.65;;;3.35;;
24650;SDS011;12783;48.824;8.662;2022-08-30T12:22:45;6.00;;;3.33;;
24650;SDS011;12783;48.824;8.662;2022-08-30T12:25:13;6.00;;;3.45;;
24650;SDS011;12783;48.824;8.662;2022-08-30T12:27:43;3.40;;;3.10;;
24650;SDS011;12783;48.824;8.662;2022-08-30T12:30:10;3.97;;;3.10;;
24650;SDS011;12783;48.824;8.662;2022-08-30T12:32:43;4.90;;;3.03;;
24650;SDS011;12783;48.824;8.662;2022-08-30T12:35:20;3.63;;;3.03;;
24650;SDS011;12783;48.824;8.662;2022-08-30T12:38:34;5.50;;;3.00;;
24650;SDS011;12783;48.824;8.662;2022-08-30T12:40:53;5.20;;;3.70;;
24650;SDS011;12783;48.824;8.662;2022-08-30T12:43:24;5.63;;;3.17;;
24650;SDS011;12783;48.824;8.662;2022-08-30T12:46:07;4.20;;;3.03;;
24650;SDS011;12783;48.824;8.662;2022-08-30T12:48:37;7.70;;;3.67;;
24650;SDS011;12783;48.824;8.662;2022-08-30T12:51:06;5.50;;;3.60;;
24650;SDS011;12783;48.824;8.662;2022-08-30T12:53:37;8.68;;;3.42;;
24650;SDS011;12783;48.824;8.662;2022-08-30T12:56:08;5.75;;;3.53;;
24650;SDS011;12783;48.824;8.662;2022-08-30T12:58:49;8.20;;;3.90;;
24650;SDS011;12783;48.824;8.662;2022-08-30T13:06:51;6.45;;;3.95;;
24650;SDS011;12783;48.824;8.662;2022-08-30T13:09:22;5.05;;;3.20;;
24650;SDS011;12783;48.824;8.662;2022-08-30T13:11:52;5.25;;;3.40;;
24650;SDS011;12783;48.824;8.662;2022-08-30T13:14:26;7.63;;;3.35;;
24650;SDS011;12783;48.824;8.662;2022-08-30T13:17:04;8.15;;;3.53;;
24650;SDS011;12783;48.824;8.662;2022-08-30T13:19:58;7.90;;;3.20;;
24650;SDS011;12783;48.824;8.662;2022-08-30T13:22:35;3.53;;;3.10;;
24650;SDS011;12783;48.824;8.662;2022-08-30T13:25:04;4.28;;;3.47;;
24650;SDS011;12783;48.824;8.662;2022-08-30T13:27:33;3.90;;;3.33;;
24650;SDS011;12783;48.824;8.662;2022-08-30T13:30:07;3.75;;;3.35;;
24650;SDS011;12783;48.824;8.662;2022-08-30T13:32:38;5.30;;;3.45;;
24650;SDS011;12783;48.824;8.662;2022-08-30T13:35:06;6.60;;;3.85;;
24650;SDS011;12783;48.824;8.662;2022-08-30T13:37:34;4.63;;;3.53;;
24650;SDS011;12783;48.824;8.662;2022-08-30T13:40:18;4.03;;;3.30;;
24650;SDS011;12783;48.824;8.662;2022-08-30T13:42:46;3.90;;;3.50;;
24650;SDS011;12783;48.824;8.662;2022-08-30T13:45:14;21.38;;;3.95;;
24650;SDS011;12783;48.824;8.662;2022-08-30T13:48:01;5.32;;;3.22;;
24650;SDS011;12783;48.824;8.662;2022-08-30T13:50:29;4.70;;;3.70;;
24650;SDS011;12783;48.824;8.662;2022-08-30T13:52:56;5.05;;;3.40;;
24650;SDS011;12783;48.824;8.662;2022-08-30T13:55:23;6.97;;;3.45;;
24650;SDS011;12783;48.824;8.662;2022-08-30T13:57:50;3.25;;;2.95;;
24650;SDS011;12783;48.824;8.662;2022-08-30T14:00:20;5.90;;;3.22;;
24650;SDS011;12783;48.824;8.662;2022-08-30T14:02:49;3.95;;;3.30;;
24650;SDS011;12783;48.824;8.662;2022-08-30T14:05:22;3.42;;;3.05;;
24650;SDS011;12783;48.824;8.662;2022-08-30T14:08:16;5.63;;;3.15;;
24650;SDS011;12783;48.824;8.662;2022-08-30T14:11:07;9.15;;;3.10;;
24650;SDS011;12783;48.824;8.662;2022-08-30T14:13:38;5.00;;;3.60;;
24650;SDS011;12783;48.824;8.662;2022-08-30T14:16:25;3.83;;;3.25;;
24650;SDS011;12783;48.824;8.662;2022-08-30T14:18:53;9.05;;;3.40;;
24650;SDS011;12783;48.824;8.662;2022-08-30T14:21:21;11.13;;;3.50;;
24650;SDS011;12783;48.824;8.662;2022-08-30T14:23:50;9.30;;;3.22;;
24650;SDS011;12783;48.824;8.662;2022-08-30T14:26:23;3.83;;;3.03;;
24650;SDS011;12783;48.824;8.662;2022-08-30T14:28:59;5.30;;;3.72;;
24650;SDS011;12783;48.824;8.662;2022-08-30T14:31:27;4.40;;;3.42;;
24650;SDS011;12783;48.824;8.662;2022-08-30T14:33:58;6.70;;;2.90;;
24650;SDS011;12783;48.824;8.662;2022-08-30T14:36:25;4.10;;;2.85;;
24650;SDS011;12783;48.824;8.662;2022-08-30T14:38:52;6.63;;;3.00;;
24650;SDS011;12783;48.824;8.662;2022-08-30T14:41:18;4.25;;;3.30;;
24650;SDS011;12783;48.824;8.662;2022-08-30T14:43:45;11.50;;;3.35;;
24650;SDS011;12783;48.824;8.662;2022-08-30T14:46:12;5.00;;;3.60;;
24650;SDS011;12783;48.824;8.662;2022-08-30T14:48:39;4.78;;;3.35;;
24650;SDS011;12783;48.824;8.662;2022-08-30T14:51:12;5.00;;;3.40;;
24650;SDS011;12783;48.824;8.662;2022-08-30T14:53:44;5.97;;;2.97;;
24650;SDS011;12783;48.824;8.662;2022-08-30T14:56:15;4.00;;;3.05;;
24650;SDS011;12783;48.824;8.662;2022-08-30T14:58:46;4.03;;;3.50;;
24650;SDS011;12783;48.824;8.662;2022-08-30T15:01:13;6.32;;;2.90;;
24650;SDS011;12783;48.824;8.662;2022-08-30T15:03:41;6.60;;;3.35;;
24650;SDS011;12783;48.824;8.662;2022-08-30T15:06:09;6.03;;;3.10;;
24650;SDS011;12783;48.824;8.662;2022-08-30T15:08:36;8.07;;;3.40;;
24650;SDS011;12783;48.824;8.662;2022-08-30T15:11:09;4.63;;;3.20;;
24650;SDS011;12783;48.824;8.662;2022-08-30T15:13:37;6.22;;;3.30;;
24650;SDS011;12783;48.824;8.662;2022-08-30T15:16:12;6.88;;;3.55;;
24650;SDS011;12783;48.824;8.662;2022-08-30T15:18:44;7.22;;;3.40;;
24650;SDS011;12783;48.824;8.662;2022-08-30T15:21:11;6.53;;;3.40;;
24650;SDS011;12783;48.824;8.662;2022-08-30T15:23:38;6.25;;;3.42;;
24650;SDS011;12783;48.824;8.662;2022-08-30T15:26:06;8.07;;;3.33;;
24650;SDS011;12783;48.824;8.662;2022-08-30T15:28:35;4.00;;;3.47;;
24650;SDS011;12783;48.824;8.662;2022-08-30T15:31:02;4.78;;;3.28;;
24650;SDS011;12783;48.824;8.662;2022-08-30T15:33:34;5.55;;;3.40;;
24650;SDS011;12783;48.824;8.662;2022-08-30T15:36:02;4.10;;;3.08;;
24650;SDS011;12783;48.824;8.662;2022-08-30T15:38:30;6.22;;;3.17;;
24650;SDS011;12783;48.824;8.662;2022-08-30T15:41:00;6.60;;;3.72;;
24650;SDS011;12783;48.824;8.662;2022-08-30T15:43:28;5.70;;;3.15;;
24650;SDS011;12783;48.824;8.662;2022-08-30T15:45:56;7.57;;;3.40;;
24650;SDS011;12783;48.824;8.662;2022-08-30T15:48:41;6.13;;;3.50;;
24650;SDS011;12783;48.824;8.662;2022-08-30T15:51:11;4.35;;;3.05;;
24650;SDS011;12783;48.824;8.662;2022-08-30T15:53:38;5.03;;;3.30;;
24650;SDS011;12783;48.824;8.662;2022-08-30T15:56:05;3.10;;;2.80;;
24650;SDS011;12783;48.824;8.662;2022-08-30T15:58:32;8.73;;;2.83;;
24650;SDS011;12783;48.824;8.662;2022-08-30T16:01:00;7.70;;;3.47;;
24650;SDS011;12783;48.824;8.662;2022-08-30T16:03:28;6.88;;;3.40;;
24650;SDS011;12783;48.824;8.662;2022-08-30T16:05:55;3.92;;;2.95;;
24650;SDS011;12783;48.824;8.662;2022-08-30T16:08:24;4.63;;;2.90;;
24650;SDS011;12783;48.824;8.662;2022-08-30T16:10:51;4.65;;;3.45;;
24650;SDS011;12783;48.824;8.662;2022-08-30T16:13:18;6.40;;;3.10;;
24650;SDS011;12783;48.824;8.662;2022-08-30T16:15:45;7.28;;;3.30;;
24650;SDS011;12783;48.824;8.662;2022-08-30T16:18:12;7.25;;;3.58;;
24650;SDS011;12783;48.824;8.662;2022-08-30T16:20:40;7.00;;;3.50;;